createdAt,value
2019-01-10T00:00:22.737Z,88.60
2019-01-10T00:02:53.178Z,88.30
2019-01-10T00:05:21.625Z,87.10
2019-01-10T00:07:50.008Z,87.30
2019-01-10T00:10:19.130Z,87.20
2019-01-10T00:12:47.303Z,86.40
2019-01-10T00:15:16.735Z,87.30
2019-01-10T00:17:45.567Z,88.40
2019-01-10T00:20:13.845Z,88.20
2019-01-10T00:22:41.810Z,87.90
2019-01-10T00:25:10.535Z,88.20
2019-01-10T00:27:39.547Z,88.00
2019-01-10T00:30:14.812Z,88.00
2019-01-10T00:32:43.861Z,88.00
2019-01-10T00:35:12.535Z,87.50
2019-01-10T00:37:41.044Z,86.70
2019-01-10T00:40:11.859Z,86.70
2019-01-10T00:42:48.729Z,87.20
2019-01-10T00:45:12.891Z,87.30
2019-01-10T00:47:40.856Z,88.00
2019-01-10T00:50:13.533Z,88.20
2019-01-10T00:52:41.466Z,88.20
2019-01-10T00:55:09.420Z,88.70
2019-01-10T00:57:38.902Z,89.10
2019-01-10T01:00:15.689Z,89.70
2019-01-10T01:02:44.418Z,89.40
2019-01-10T01:05:13.472Z,89.40
2019-01-10T01:07:41.804Z,89.30
2019-01-10T01:10:31.964Z,89.00
2019-01-10T01:13:00.246Z,88.90
2019-01-10T01:15:28.343Z,89.50
2019-01-10T01:17:57.995Z,88.30
2019-01-10T01:20:26.002Z,88.40
2019-01-10T01:22:53.982Z,89.40
2019-01-10T01:25:22.646Z,88.80
2019-01-10T01:27:50.593Z,89.10
2019-01-10T01:30:22.123Z,89.10
2019-01-10T01:32:50.058Z,88.80
2019-01-10T01:35:18.351Z,88.60
2019-01-10T01:37:46.454Z,88.60
2019-01-10T01:40:17.225Z,88.60
2019-01-10T01:42:45.196Z,88.50
2019-01-10T01:45:14.486Z,88.40
2019-01-10T01:47:42.509Z,88.30
2019-01-10T01:50:15.741Z,88.10
2019-01-10T01:52:43.707Z,88.70
2019-01-10T01:55:12.264Z,87.50
2019-01-10T01:57:40.848Z,88.10
2019-01-10T02:00:12.594Z,88.10
2019-01-10T02:02:40.814Z,89.10
2019-01-10T02:05:08.982Z,88.70
2019-01-10T02:07:36.969Z,88.20
2019-01-10T02:10:13.902Z,87.80
2019-01-10T02:12:42.054Z,88.30
2019-01-10T02:15:10.037Z,88.00
2019-01-10T02:17:38.327Z,89.00
2019-01-10T02:20:08.091Z,88.00
2019-01-10T02:22:38.604Z,87.60
2019-01-10T02:25:08.169Z,88.30
2019-01-10T02:27:36.559Z,88.50
2019-01-10T02:30:07.452Z,88.80
2019-01-10T02:32:35.668Z,88.30
2019-01-10T02:35:04.475Z,88.70
2019-01-10T02:37:32.693Z,89.10
2019-01-10T02:40:01.006Z,89.30
2019-01-10T02:42:29.180Z,89.40
2019-01-10T02:44:58.371Z,89.00
2019-01-10T02:47:26.440Z,89.30
2019-01-10T02:49:54.394Z,89.40
2019-01-10T02:52:22.378Z,90.00
2019-01-10T02:54:50.317Z,90.30
2019-01-10T02:57:19.451Z,90.20
2019-01-10T02:59:47.726Z,90.10
2019-01-10T03:02:16.098Z,90.10
2019-01-10T03:04:44.130Z,89.70
2019-01-10T03:07:12.110Z,90.10
2019-01-10T03:09:40.726Z,90.40
2019-01-10T03:12:08.814Z,90.50
2019-01-10T03:14:37.476Z,90.60
2019-01-10T03:17:05.629Z,91.10
2019-01-10T03:19:33.544Z,90.20
2019-01-10T03:22:01.514Z,88.80
2019-01-10T03:24:29.515Z,89.00
2019-01-10T03:26:57.757Z,90.10
2019-01-10T03:29:26.431Z,89.20
2019-01-10T03:31:54.923Z,89.30
2019-01-10T03:36:51.068Z,88.60
2019-01-10T03:39:19.325Z,89.70
2019-01-10T03:41:47.617Z,88.90
2019-01-10T03:44:15.613Z,88.90
2019-01-10T03:46:44.242Z,89.10
2019-01-10T03:49:12.254Z,89.80
2019-01-10T03:51:40.180Z,89.70
2019-01-10T03:54:08.487Z,89.10
2019-01-10T03:56:36.704Z,89.80
2019-01-10T03:59:04.713Z,89.50
2019-01-10T04:01:32.674Z,90.10
2019-01-10T04:04:00.976Z,90.50
2019-01-10T04:06:28.990Z,90.00
2019-01-10T04:08:57.278Z,90.00
2019-01-10T04:11:25.372Z,89.60
2019-01-10T04:13:57.589Z,90.10
2019-01-10T04:16:24.514Z,90.10
2019-01-10T04:18:52.977Z,90.10
2019-01-10T04:21:21.001Z,90.70
2019-01-10T04:23:52.337Z,89.10
2019-01-10T04:26:20.303Z,89.60
2019-01-10T04:28:48.544Z,89.50
2019-01-10T04:31:16.543Z,88.90
2019-01-10T04:33:44.923Z,89.20
2019-01-10T04:36:13.206Z,89.80
2019-01-10T04:38:41.222Z,89.20
2019-01-10T04:41:09.249Z,89.10
2019-01-10T04:43:37.889Z,89.70
2019-01-10T04:46:05.859Z,89.90
2019-01-10T04:48:34.139Z,88.90
2019-01-10T04:51:02.334Z,89.40
2019-01-10T04:53:30.652Z,88.80
2019-01-10T04:55:58.727Z,88.90
2019-01-10T04:58:26.757Z,89.00
2019-01-10T05:00:54.754Z,88.70
2019-01-10T05:03:22.872Z,89.10
2019-01-10T05:05:51.569Z,88.80
2019-01-10T05:08:21.274Z,88.70
2019-01-10T05:10:49.405Z,88.20
2019-01-10T05:13:17.397Z,88.50
2019-01-10T05:15:45.572Z,89.10
2019-01-10T05:18:13.551Z,89.00
2019-01-10T05:20:41.489Z,87.80
2019-01-10T05:23:09.856Z,88.20
2019-01-10T05:25:40.047Z,88.70
2019-01-10T05:28:08.342Z,89.00
2019-01-10T05:30:36.822Z,88.80
2019-01-10T05:33:06.532Z,89.10
2019-01-10T05:35:34.971Z,88.50
2019-01-10T05:38:05.924Z,88.80
2019-01-10T05:40:34.406Z,89.10
2019-01-10T05:43:03.040Z,88.20
2019-01-10T05:45:31.732Z,88.70
2019-01-10T05:48:00.056Z,89.20
2019-01-10T05:50:28.855Z,88.90
2019-01-10T05:52:57.593Z,88.90
2019-01-10T05:55:25.684Z,89.00
2019-01-10T05:57:54.076Z,88.50
2019-01-10T06:00:27.180Z,89.10
2019-01-10T06:02:57.271Z,89.00
2019-01-10T06:05:28.713Z,89.00
2019-01-10T06:07:56.834Z,89.10
2019-01-10T06:10:30.393Z,89.00
2019-01-10T06:12:59.163Z,88.80
2019-01-10T06:15:27.671Z,89.10
2019-01-10T06:17:56.140Z,89.00
2019-01-10T06:20:27.994Z,88.60
2019-01-10T06:22:56.184Z,89.10
2019-01-10T06:25:24.625Z,88.70
2019-01-10T06:27:54.361Z,88.10
2019-01-10T06:30:24.925Z,88.00
2019-01-10T06:32:54.960Z,88.60
2019-01-10T06:35:23.408Z,89.10
2019-01-10T06:37:53.220Z,88.40
2019-01-10T06:40:22.350Z,89.00
2019-01-10T06:42:50.720Z,88.30
2019-01-10T06:45:19.142Z,89.40
2019-01-10T06:47:47.690Z,89.40
2019-01-10T06:50:16.683Z,89.30
2019-01-10T06:52:45.122Z,89.80
2019-01-10T06:55:13.244Z,90.00
2019-01-10T06:57:41.275Z,90.00
2019-01-10T07:00:20.922Z,90.20
2019-01-10T07:02:49.691Z,90.20
2019-01-10T07:05:20.093Z,90.40
2019-01-10T07:07:56.403Z,90.20
2019-01-10T07:10:29.076Z,90.50
2019-01-10T07:12:57.366Z,90.10
2019-01-10T07:15:26.815Z,90.40
2019-01-10T07:17:54.924Z,90.40
2019-01-10T07:20:24.027Z,90.80
2019-01-10T07:22:53.476Z,90.60
2019-01-10T07:25:21.466Z,90.90
2019-01-10T07:27:50.775Z,91.10
2019-01-10T07:30:25.447Z,91.00
2019-01-10T07:32:53.509Z,90.80
2019-01-10T07:35:21.558Z,91.30
2019-01-10T07:37:52.724Z,91.60
2019-01-10T07:40:21.041Z,91.10
2019-01-10T07:42:49.038Z,91.20
2019-01-10T07:45:22.913Z,90.70
2019-01-10T07:47:51.459Z,90.70
2019-01-10T07:50:33.246Z,90.90
2019-01-10T07:53:01.599Z,90.50
2019-01-10T07:55:29.617Z,90.50
2019-01-10T07:57:58.301Z,90.40
2019-01-10T08:00:26.264Z,91.00
2019-01-10T08:02:55.389Z,90.80
2019-01-10T08:05:23.406Z,90.90
2019-01-10T08:07:52.057Z,90.30
2019-01-10T08:10:21.833Z,90.20
2019-01-10T08:12:49.879Z,90.10
2019-01-10T08:15:20.650Z,90.50
2019-01-10T08:17:50.525Z,90.30
2019-01-10T08:20:20.343Z,90.10
2019-01-10T08:22:48.465Z,90.10
2019-01-10T08:25:16.526Z,90.10
2019-01-10T08:27:44.743Z,90.20
2019-01-10T08:30:16.804Z,89.90
2019-01-10T08:32:44.840Z,89.80
2019-01-10T08:35:14.835Z,90.30
2019-01-10T08:37:43.933Z,90.30
2019-01-10T08:40:11.952Z,90.10
2019-01-10T08:42:40.596Z,90.00
2019-01-10T08:45:10.019Z,89.60
2019-01-10T08:47:38.246Z,90.10
2019-01-10T08:50:11.182Z,89.20
2019-01-10T08:52:39.594Z,87.70
2019-01-10T08:55:07.971Z,88.50
2019-01-10T08:57:37.411Z,89.10
2019-01-10T09:00:09.829Z,89.00
2019-01-10T09:02:39.023Z,88.60
2019-01-10T09:05:08.835Z,86.80
2019-01-10T09:07:36.913Z,85.90
2019-01-10T09:10:09.862Z,86.60
2019-01-10T09:12:37.859Z,87.70
2019-01-10T09:15:07.321Z,88.40
2019-01-10T09:17:35.484Z,87.50
2019-01-10T09:20:04.662Z,86.30
2019-01-10T09:22:33.013Z,86.60
2019-01-10T09:25:01.258Z,87.90
2019-01-10T09:27:29.386Z,86.90
2019-01-10T09:29:58.333Z,86.30
2019-01-10T09:32:26.620Z,86.40
2019-01-10T09:34:55.162Z,86.90
2019-01-10T09:37:23.240Z,87.70
2019-01-10T09:39:52.486Z,85.70
2019-01-10T09:42:21.232Z,85.80
2019-01-10T09:44:49.292Z,86.60
2019-01-10T09:47:17.926Z,87.10
2019-01-10T09:49:48.498Z,87.90
2019-01-10T09:52:16.474Z,88.50
2019-01-10T09:54:45.056Z,87.90
2019-01-10T09:57:14.254Z,86.90
2019-01-10T09:59:42.678Z,87.30
2019-01-10T10:02:11.093Z,88.10
2019-01-10T10:04:40.250Z,87.60
2019-01-10T10:07:08.375Z,86.60
2019-01-10T10:09:36.719Z,86.60
2019-01-10T10:12:04.693Z,86.70
2019-01-10T10:14:35.100Z,87.40
2019-01-10T10:17:03.033Z,87.70
2019-01-10T10:22:00.650Z,87.50
2019-01-10T10:24:30.081Z,87.50
2019-01-10T10:26:58.157Z,87.50
2019-01-10T10:29:26.395Z,87.50
2019-01-10T10:31:56.611Z,87.60
2019-01-10T10:34:24.694Z,88.80
2019-01-10T10:36:53.162Z,88.60
2019-01-10T10:39:21.340Z,87.80
2019-01-10T10:41:50.464Z,87.70
2019-01-10T10:44:18.667Z,87.20
2019-01-10T10:46:46.683Z,87.60
2019-01-10T10:49:15.875Z,87.50
2019-01-10T10:51:43.915Z,87.90
2019-01-10T10:54:12.354Z,88.00
2019-01-10T10:56:40.311Z,87.50
2019-01-10T10:59:08.322Z,86.90
2019-01-10T11:01:38.026Z,87.30
2019-01-10T11:04:05.948Z,87.80
2019-01-10T11:06:34.580Z,87.40
2019-01-10T11:09:09.245Z,87.60
2019-01-10T11:11:34.890Z,87.50
2019-01-10T11:14:02.925Z,86.40
2019-01-10T11:16:31.065Z,85.80
2019-01-10T11:18:59.104Z,86.50
2019-01-10T11:21:27.396Z,86.30
2019-01-10T11:23:56.816Z,85.90
2019-01-10T11:26:25.182Z,84.80
2019-01-10T11:28:53.211Z,84.60
2019-01-10T11:31:21.312Z,85.20
2019-01-10T11:33:49.399Z,85.80
2019-01-10T11:36:17.360Z,85.00
2019-01-10T11:38:45.385Z,85.20
2019-01-10T11:41:13.885Z,84.60
2019-01-10T11:43:43.102Z,85.10
2019-01-10T11:46:19.258Z,84.70
2019-01-10T11:51:09.453Z,85.40
2019-01-10T11:53:37.578Z,85.90
2019-01-10T11:56:05.679Z,85.70
2019-01-10T12:03:30.951Z,85.60
2019-01-10T12:05:58.920Z,85.30
2019-01-10T12:08:26.967Z,85.80
2019-01-10T12:10:55.050Z,86.00
2019-01-10T12:13:23.078Z,85.30
2019-01-10T12:15:51.116Z,85.60
2019-01-10T12:18:19.971Z,84.60
2019-01-10T12:20:49.207Z,84.00
2019-01-10T12:23:17.241Z,84.70
2019-01-10T12:25:45.687Z,84.30
2019-01-10T12:28:13.760Z,85.20
2019-01-10T12:30:42.956Z,84.10
2019-01-10T12:33:11.091Z,83.50
2019-01-10T12:35:39.201Z,84.30
2019-01-10T12:38:07.205Z,83.40
2019-01-10T12:40:35.177Z,83.00
2019-01-10T12:43:03.157Z,83.00
2019-01-10T12:45:32.302Z,82.40
2019-01-10T12:48:01.688Z,81.50
2019-01-10T12:50:33.826Z,82.60
2019-01-10T12:53:07.940Z,80.70
2019-01-10T12:55:37.059Z,81.30
2019-01-10T12:58:08.123Z,80.10
2019-01-10T13:00:37.366Z,80.60
2019-01-10T13:03:05.789Z,79.30
2019-01-10T13:05:33.887Z,79.10
2019-01-10T13:08:03.763Z,79.00
2019-01-10T13:10:32.808Z,79.20
2019-01-10T13:13:00.759Z,80.50
2019-01-10T13:15:29.163Z,80.20
2019-01-10T13:17:57.460Z,79.50
2019-01-10T13:20:26.530Z,79.70
2019-01-10T13:22:55.683Z,78.80
2019-01-10T13:25:23.829Z,79.60
2019-01-10T13:27:54.072Z,80.20
2019-01-10T13:30:24.840Z,79.80
2019-01-10T13:32:55.183Z,78.00
2019-01-10T13:35:23.446Z,78.70
2019-01-10T13:37:51.737Z,77.70
2019-01-10T13:40:19.934Z,79.10
2019-01-10T13:42:48.113Z,78.60
2019-01-10T13:45:16.893Z,78.90
2019-01-10T13:47:47.120Z,78.30
2019-01-10T13:50:24.985Z,79.20
2019-01-10T13:52:53.599Z,79.30
2019-01-10T13:55:21.886Z,79.80
2019-01-10T13:57:50.340Z,79.80
2019-01-10T14:00:21.645Z,80.10
2019-01-10T14:02:49.662Z,80.30
2019-01-10T14:05:17.819Z,79.80
2019-01-10T14:07:45.870Z,80.50
2019-01-10T14:10:15.315Z,80.30
2019-01-10T14:12:43.346Z,80.60
2019-01-10T14:15:18.055Z,80.20
2019-01-10T14:20:14.592Z,80.00
2019-01-10T14:22:43.313Z,80.70
2019-01-10T14:25:11.390Z,81.20
2019-01-10T14:27:39.491Z,82.20
2019-01-10T14:30:22.764Z,80.80
2019-01-10T14:35:20.517Z,80.40
2019-01-10T14:37:48.669Z,81.90
2019-01-10T14:40:17.569Z,80.80
2019-01-10T14:45:14.872Z,81.10
2019-01-10T14:47:44.258Z,82.30
2019-01-10T14:50:14.343Z,83.00
2019-01-10T14:52:42.364Z,83.50
2019-01-10T14:55:12.564Z,83.30
2019-01-10T14:57:40.717Z,82.50
2019-01-10T15:00:15.185Z,82.20
2019-01-10T15:02:44.710Z,83.10
2019-01-10T15:05:14.932Z,82.00
2019-01-10T15:07:45.525Z,82.60
2019-01-10T15:10:13.740Z,82.40
2019-01-10T15:12:42.250Z,82.00
2019-01-10T15:15:14.348Z,80.80
2019-01-10T15:17:42.559Z,81.30
2019-01-10T15:20:14.950Z,81.70
2019-01-10T15:22:44.315Z,80.80
2019-01-10T15:25:12.452Z,81.00
2019-01-10T15:27:40.755Z,81.60
2019-01-10T15:30:14.405Z,81.30
2019-01-10T15:32:42.732Z,81.90
2019-01-10T15:35:12.457Z,80.80
2019-01-10T15:37:42.271Z,80.10
2019-01-10T15:40:15.284Z,80.30
2019-01-10T15:42:43.296Z,80.20
2019-01-10T15:45:12.842Z,80.10
2019-01-10T15:47:41.117Z,77.50
2019-01-10T15:50:11.966Z,78.80
2019-01-10T15:52:40.312Z,79.10
2019-01-10T15:55:09.463Z,77.60
2019-01-10T15:57:37.570Z,78.80
2019-01-10T16:00:09.764Z,79.10
2019-01-10T16:02:37.820Z,78.90
2019-01-10T16:05:06.200Z,78.40
2019-01-10T16:07:35.486Z,78.90
2019-01-10T16:10:07.573Z,78.40
2019-01-10T16:15:06.068Z,77.90
2019-01-10T16:17:34.274Z,78.00
2019-01-10T16:20:04.583Z,78.40
2019-01-10T16:22:34.603Z,78.40
2019-01-10T16:25:03.677Z,78.90
2019-01-10T16:27:33.331Z,77.40
2019-01-10T16:30:01.364Z,78.00
2019-01-10T16:32:29.356Z,78.60
2019-01-10T16:35:00.747Z,79.00
2019-01-10T16:37:28.749Z,78.80
2019-01-10T16:39:57.907Z,78.50
2019-01-10T16:42:25.989Z,78.40
2019-01-10T16:44:55.160Z,78.70
2019-01-10T16:47:23.458Z,78.20
2019-01-10T16:49:51.580Z,78.60
2019-01-10T16:52:19.852Z,76.80
2019-01-10T16:54:50.856Z,77.20
2019-01-10T16:57:21.026Z,77.90
2019-01-10T16:59:49.271Z,77.00
2019-01-10T17:02:17.634Z,77.50
2019-01-10T17:04:45.712Z,77.10
2019-01-10T17:09:43.731Z,77.30
2019-01-10T17:12:14.819Z,76.80
2019-01-10T17:14:42.890Z,77.50
2019-01-10T17:19:40.460Z,77.90
2019-01-10T17:22:09.877Z,77.40
2019-01-10T17:24:39.990Z,77.80
2019-01-10T17:27:08.316Z,76.50
2019-01-10T17:29:36.576Z,77.10
2019-01-10T17:32:04.856Z,77.50
2019-01-10T17:34:32.979Z,77.30
2019-01-10T17:37:01.687Z,77.10
2019-01-10T17:39:30.865Z,78.10
2019-01-10T17:41:59.009Z,76.90
2019-01-10T17:44:27.258Z,77.50
2019-01-10T17:46:55.566Z,76.00
2019-01-10T17:49:23.566Z,74.30
2019-01-10T17:51:54.973Z,74.40
2019-01-10T17:54:24.908Z,75.10
2019-01-10T17:56:53.413Z,75.20
2019-01-10T17:59:21.578Z,76.10
2019-01-10T18:01:50.473Z,76.00
2019-01-10T18:04:19.455Z,74.70
2019-01-10T18:06:47.621Z,75.30
2019-01-10T18:09:15.992Z,75.70
2019-01-10T18:11:44.496Z,74.50
2019-01-10T18:14:13.005Z,75.10
2019-01-10T18:16:42.890Z,74.70
2019-01-10T18:19:12.118Z,75.50
2019-01-10T18:21:40.381Z,76.90
2019-01-10T18:24:08.815Z,77.00
2019-01-10T18:26:37.641Z,75.80
2019-01-10T18:29:05.764Z,76.30
2019-01-10T18:31:35.945Z,76.30
2019-01-10T18:34:06.161Z,76.60
2019-01-10T18:36:36.068Z,76.70
2019-01-10T18:39:06.709Z,78.60
2019-01-10T18:41:36.098Z,73.60
2019-01-10T18:44:04.134Z,75.40
2019-01-10T18:49:01.400Z,72.00
2019-01-10T18:51:29.927Z,73.60
2019-01-10T18:53:58.077Z,74.20
2019-01-10T18:56:26.049Z,70.40
2019-01-10T18:58:54.386Z,69.70
2019-01-10T19:01:23.167Z,69.80
2019-01-10T19:03:51.126Z,70.20
2019-01-10T19:06:21.524Z,71.40
2019-01-10T19:11:18.312Z,70.40
2019-01-10T19:16:15.771Z,73.20
2019-01-10T19:18:43.976Z,69.80
2019-01-10T19:21:11.977Z,70.20
2019-01-10T19:26:10.579Z,71.30
2019-01-10T19:28:38.905Z,69.60
2019-01-10T19:31:07.063Z,70.20
2019-01-10T19:33:35.221Z,70.80
2019-01-10T19:36:04.841Z,71.90
2019-01-10T19:38:33.335Z,69.50
2019-01-10T19:41:01.550Z,70.90
2019-01-10T19:45:59.005Z,69.90
2019-01-10T19:48:27.210Z,68.70
2019-01-10T19:50:55.835Z,68.10
2019-01-10T19:53:23.940Z,68.70
2019-01-10T19:55:52.044Z,71.00
2019-01-10T19:58:20.309Z,73.00
2019-01-10T20:00:53.188Z,73.40
2019-01-10T20:03:21.227Z,73.30
2019-01-10T20:05:49.986Z,73.90
2019-01-10T20:08:18.203Z,72.00
2019-01-10T20:10:47.494Z,70.60
2019-01-10T20:13:15.666Z,71.10
2019-01-10T20:15:43.769Z,69.70
2019-01-10T20:18:16.151Z,69.70
2019-01-10T20:20:42.552Z,69.10
2019-01-10T20:23:18.634Z,70.10
2019-01-10T20:25:46.992Z,69.60
2019-01-10T20:28:15.308Z,70.50
2019-01-10T20:30:43.324Z,71.00
2019-01-10T20:33:11.370Z,71.40
2019-01-10T20:35:39.603Z,70.80
2019-01-10T20:38:07.569Z,70.30
2019-01-10T20:40:35.523Z,71.20
2019-01-10T20:45:32.858Z,70.90
2019-01-10T20:48:02.143Z,71.10
2019-01-10T20:50:30.111Z,71.80
2019-01-10T20:52:58.326Z,72.30
2019-01-10T20:55:26.372Z,72.80
2019-01-10T20:57:54.379Z,71.30
2019-01-10T21:00:23.573Z,72.20
2019-01-10T21:02:51.945Z,72.70
2019-01-10T21:05:20.324Z,72.70
2019-01-10T21:07:49.795Z,72.70
2019-01-10T21:10:18.845Z,73.40
2019-01-10T21:12:48.215Z,72.50
2019-01-10T21:15:20.091Z,72.30
2019-01-10T21:17:49.271Z,72.70
2019-01-10T21:20:18.478Z,72.00
2019-01-10T21:22:48.717Z,71.70
2019-01-10T21:25:17.388Z,72.40
2019-01-10T21:27:45.640Z,73.30
2019-01-10T21:30:16.593Z,72.80
2019-01-10T21:32:45.835Z,72.60
2019-01-10T21:35:13.833Z,73.20
2019-01-10T21:37:41.924Z,72.60
2019-01-10T21:40:13.182Z,72.50
2019-01-10T21:42:41.206Z,71.70
2019-01-10T21:45:13.127Z,72.30
2019-01-10T21:47:41.194Z,71.30
2019-01-10T21:50:12.303Z,71.30
2019-01-10T21:52:40.508Z,71.80
2019-01-10T21:55:09.667Z,72.50
2019-01-10T21:57:37.656Z,71.60
2019-01-10T22:00:11.029Z,72.00
2019-01-10T22:02:40.029Z,71.50
2019-01-10T22:05:07.984Z,72.50
2019-01-10T22:07:36.235Z,72.30
2019-01-10T22:10:05.057Z,71.70
2019-01-10T22:12:33.261Z,72.40
2019-01-10T22:15:01.856Z,72.30
2019-01-10T22:17:30.016Z,73.00
2019-01-10T22:19:58.597Z,70.90
2019-01-10T22:22:26.873Z,71.40
2019-01-10T22:24:54.832Z,72.00
2019-01-10T22:27:23.347Z,73.00
2019-01-10T22:29:51.371Z,73.00
2019-01-10T22:32:19.377Z,73.10
2019-01-10T22:34:47.411Z,72.90
2019-01-10T22:37:16.373Z,73.20
2019-01-10T22:39:44.832Z,72.90
2019-01-10T22:42:12.802Z,73.90
2019-01-10T22:44:42.305Z,73.60
2019-01-10T22:47:10.691Z,70.70
2019-01-10T22:49:38.635Z,71.30
2019-01-10T22:52:06.636Z,71.30
2019-01-10T22:54:35.567Z,71.90
2019-01-10T22:57:03.522Z,72.00
2019-01-10T22:59:31.769Z,71.50
2019-01-10T23:01:59.965Z,72.10
2019-01-10T23:04:34.498Z,72.80
2019-01-10T23:07:02.456Z,73.30
2019-01-10T23:09:30.804Z,73.60
2019-01-10T23:11:58.877Z,72.90
2019-01-10T23:14:27.102Z,73.60
2019-01-10T23:19:22.983Z,73.20
2019-01-10T23:21:50.984Z,74.00
2019-01-10T23:24:19.757Z,73.50
2019-01-10T23:26:54.818Z,73.60
2019-01-10T23:29:31.369Z,72.60
2019-01-10T23:32:05.048Z,72.40
2019-01-10T23:34:33.271Z,72.90
2019-01-10T23:37:02.761Z,72.30
2019-01-10T23:39:31.417Z,72.20
2019-01-10T23:41:59.385Z,72.10
2019-01-10T23:44:27.346Z,72.40
2019-01-10T23:46:55.356Z,72.00
2019-01-10T23:49:23.315Z,72.80
2019-01-10T23:51:52.260Z,72.30
2019-01-10T23:54:20.757Z,72.90
2019-01-10T23:56:48.845Z,72.70
